createdAt,value
2023-03-27T00:00:17.068Z,1.45
2023-03-27T00:02:44.342Z,1.55
2023-03-27T00:05:11.426Z,1.60
2023-03-27T00:07:41.515Z,1.77
2023-03-27T00:10:14.915Z,1.90
2023-03-27T00:12:44.323Z,1.80
2023-03-27T00:15:17.609Z,2.10
2023-03-27T00:17:52.659Z,2.50
2023-03-27T00:20:23.101Z,2.20
2023-03-27T00:22:56.477Z,2.70
2023-03-27T00:25:31.331Z,2.33
2023-03-27T00:28:00.135Z,2.35
2023-03-27T00:30:29.744Z,2.60
2023-03-27T00:32:58.205Z,2.20
2023-03-27T00:35:29.177Z,3.25
2023-03-27T00:37:58.906Z,3.05
2023-03-27T00:40:25.949Z,2.97
2023-03-27T00:42:57.784Z,2.38
2023-03-27T00:45:30.645Z,2.50
2023-03-27T00:48:04.485Z,2.35
2023-03-27T00:50:41.100Z,3.13
2023-03-27T00:53:17.813Z,3.80
2023-03-27T00:55:49.019Z,4.03
2023-03-27T00:58:42.182Z,4.45
2023-03-27T01:01:13.464Z,4.63
2023-03-27T01:03:44.332Z,5.22
2023-03-27T01:06:14.723Z,4.43
2023-03-27T01:08:44.945Z,5.07
2023-03-27T01:11:42.908Z,5.50
2023-03-27T01:14:21.862Z,4.07
2023-03-27T01:17:23.985Z,3.58
2023-03-27T01:20:47.410Z,3.45
2023-03-27T01:23:59.607Z,3.42
2023-03-27T01:26:42.090Z,2.53
2023-03-27T01:29:52.368Z,2.50
2023-03-27T01:32:44.721Z,3.45
2023-03-27T01:35:34.816Z,3.55
2023-03-27T01:38:25.214Z,2.83
2023-03-27T01:41:33.153Z,3.22
2023-03-27T01:44:13.206Z,3.40
2023-03-27T01:46:57.423Z,3.92
2023-03-27T01:49:35.842Z,4.15
2023-03-27T01:52:10.137Z,3.72
2023-03-27T01:54:46.590Z,3.63
2023-03-27T01:57:27.874Z,4.07
2023-03-27T02:00:19.365Z,4.20
2023-03-27T02:03:08.350Z,4.20
2023-03-27T02:06:09.609Z,4.55
2023-03-27T02:09:04.561Z,3.70
2023-03-27T02:12:21.775Z,4.37
2023-03-27T02:15:23.289Z,3.80
2023-03-27T02:18:07.721Z,3.97
2023-03-27T02:20:42.531Z,5.40
2023-03-27T02:23:12.465Z,5.03
2023-03-27T02:25:56.726Z,4.35
2023-03-27T02:28:41.918Z,5.15
2023-03-27T02:31:41.845Z,5.00
2023-03-27T02:34:44.482Z,5.85
2023-03-27T02:37:31.928Z,4.93
2023-03-27T02:40:41.313Z,5.22
2023-03-27T02:43:52.741Z,5.38
2023-03-27T02:46:48.272Z,4.63
2023-03-27T02:49:37.273Z,5.20
2023-03-27T02:52:36.182Z,5.40
2023-03-27T02:55:26.500Z,5.78
2023-03-27T02:58:15.196Z,6.30
2023-03-27T03:00:59.379Z,6.10
2023-03-27T03:04:23.665Z,6.85
2023-03-27T03:07:24.163Z,5.95
2023-03-27T03:10:02.429Z,7.28
2023-03-27T03:16:21.786Z,7.28
2023-03-27T03:19:12.007Z,6.80
2023-03-27T03:22:11.870Z,7.75
2023-03-27T03:24:50.403Z,6.88
2023-03-27T03:27:27.957Z,6.95
2023-03-27T03:30:16.641Z,8.43
2023-03-27T03:33:24.303Z,7.88
2023-03-27T03:36:19.710Z,8.50
2023-03-27T03:39:07.984Z,7.38
2023-03-27T03:41:50.204Z,8.70
2023-03-27T03:44:46.853Z,9.45
2023-03-27T03:47:40.913Z,9.30
2023-03-27T03:50:28.710Z,9.73
2023-03-27T03:53:02.105Z,9.32
2023-03-27T03:55:36.309Z,9.18
2023-03-27T03:58:08.165Z,19.00
2023-03-27T04:00:54.726Z,14.20
2023-03-27T04:03:50.131Z,10.80
2023-03-27T04:06:41.484Z,10.70
2023-03-27T04:09:13.142Z,9.75
2023-03-27T04:12:04.093Z,9.20
2023-03-27T04:14:49.183Z,9.35
2023-03-27T04:21:15.018Z,7.63
2023-03-27T04:24:26.244Z,6.38
2023-03-27T04:27:29.632Z,6.80
2023-03-27T04:30:12.741Z,7.15
2023-03-27T04:33:23.813Z,6.43
2023-03-27T04:36:26.478Z,5.65
2023-03-27T04:39:04.284Z,6.07
2023-03-27T04:41:33.947Z,5.43
2023-03-27T04:44:01.210Z,5.45
2023-03-27T04:46:29.762Z,5.82
2023-03-27T04:49:02.124Z,5.78
2023-03-27T04:51:42.843Z,5.80
2023-03-27T04:54:11.955Z,5.43
2023-03-27T04:56:43.280Z,5.28
2023-03-27T04:59:10.235Z,5.70
2023-03-27T05:01:37.446Z,5.35
2023-03-27T05:04:10.280Z,4.78
2023-03-27T05:07:03.272Z,5.13
2023-03-27T05:09:30.237Z,5.22
2023-03-27T05:11:57.425Z,5.63
2023-03-27T05:14:24.590Z,5.53
2023-03-27T05:16:54.656Z,4.65
2023-03-27T05:19:22.986Z,4.43
2023-03-27T05:21:57.427Z,4.18
2023-03-27T05:24:24.508Z,4.32
2023-03-27T05:26:51.655Z,3.80
2023-03-27T05:29:18.948Z,3.08
2023-03-27T05:31:50.614Z,3.85
2023-03-27T05:34:54.652Z,3.50
2023-03-27T05:37:25.408Z,3.65
2023-03-27T05:40:32.018Z,3.58
2023-03-27T05:43:13.438Z,3.35
2023-03-27T05:45:40.765Z,4.03
2023-03-27T05:48:11.926Z,3.67
2023-03-27T05:53:28.668Z,3.63
2023-03-27T05:56:21.882Z,2.72
2023-03-27T05:59:02.330Z,3.50
2023-03-27T06:01:37.142Z,3.40
2023-03-27T06:04:06.136Z,2.72
2023-03-27T06:09:17.966Z,2.78
2023-03-27T06:12:14.268Z,2.92
2023-03-27T06:14:41.396Z,3.17
2023-03-27T06:17:47.959Z,3.90
2023-03-27T06:20:15.557Z,2.80
2023-03-27T06:23:01.484Z,2.75
2023-03-27T06:25:38.987Z,3.15
2023-03-27T06:28:09.769Z,3.63
2023-03-27T06:30:50.311Z,3.05
2023-03-27T06:33:41.687Z,3.10
2023-03-27T06:36:20.057Z,3.83
2023-03-27T06:39:31.902Z,3.35
2023-03-27T06:41:59.788Z,2.88
2023-03-27T06:44:34.965Z,3.17
2023-03-27T06:47:14.149Z,3.00
2023-03-27T06:50:00.206Z,2.83
2023-03-27T06:52:29.915Z,2.25
2023-03-27T06:55:15.079Z,2.30
2023-03-27T06:57:53.131Z,2.10
2023-03-27T07:00:25.942Z,2.10
2023-03-27T07:03:12.553Z,2.17
2023-03-27T07:06:02.874Z,2.28
2023-03-27T07:08:49.941Z,1.80
2023-03-27T07:11:18.402Z,1.73
2023-03-27T07:13:58.063Z,1.40
2023-03-27T07:16:27.651Z,1.38
2023-03-27T07:18:55.753Z,1.30
2023-03-27T07:21:31.195Z,0.98
2023-03-27T07:24:04.401Z,1.00
2023-03-27T07:26:34.414Z,1.05
2023-03-27T07:29:06.066Z,0.85
2023-03-27T07:31:51.613Z,0.60
2023-03-27T07:34:27.100Z,0.90
2023-03-27T07:37:12.486Z,0.80
2023-03-27T07:39:51.003Z,0.80
2023-03-27T07:42:19.482Z,1.45
2023-03-27T07:44:58.589Z,1.20
2023-03-27T07:47:28.333Z,1.40
2023-03-27T07:50:00.230Z,1.05
2023-03-27T07:52:27.909Z,1.42
2023-03-27T07:54:59.093Z,0.95
2023-03-27T07:57:55.056Z,0.80
2023-03-27T08:00:26.098Z,1.20
2023-03-27T08:03:11.485Z,1.10
2023-03-27T08:05:54.728Z,1.50
2023-03-27T08:08:25.350Z,1.20
2023-03-27T08:11:04.002Z,1.25
2023-03-27T08:13:40.914Z,1.13
2023-03-27T08:16:18.763Z,1.30
2023-03-27T08:18:47.458Z,1.30
2023-03-27T08:21:15.720Z,1.10
2023-03-27T08:23:44.781Z,1.20
2023-03-27T08:26:39.853Z,1.67
2023-03-27T08:31:43.257Z,0.93
2023-03-27T08:34:10.767Z,1.05
2023-03-27T08:36:56.009Z,1.17
2023-03-27T08:39:48.347Z,1.02
2023-03-27T08:42:21.949Z,1.27
2023-03-27T08:44:55.418Z,1.02
2023-03-27T08:47:51.620Z,1.13
2023-03-27T08:50:50.352Z,0.80
2023-03-27T08:53:41.625Z,0.80
2023-03-27T08:56:18.399Z,0.88
2023-03-27T08:58:48.811Z,0.75
2023-03-27T09:01:46.589Z,0.90
2023-03-27T09:04:24.987Z,1.15
2023-03-27T09:07:08.483Z,0.95
2023-03-27T09:09:59.577Z,1.20
2023-03-27T09:12:57.733Z,1.40
2023-03-27T09:15:31.757Z,1.13
2023-03-27T09:18:09.626Z,1.10
2023-03-27T09:20:48.319Z,1.83
2023-03-27T09:23:41.524Z,1.00
2023-03-27T09:26:37.784Z,1.00
2023-03-27T09:29:20.087Z,1.00
2023-03-27T09:31:56.336Z,1.30
2023-03-27T09:34:33.387Z,1.48
2023-03-27T09:37:01.127Z,1.45
2023-03-27T09:39:35.285Z,1.58
2023-03-27T09:42:26.197Z,1.67
2023-03-27T09:45:02.484Z,1.55
2023-03-27T09:47:47.380Z,1.30
2023-03-27T09:50:32.884Z,1.10
2023-03-27T09:53:23.608Z,1.05
2023-03-27T09:56:15.925Z,0.80
2023-03-27T09:58:49.379Z,1.10
2023-03-27T10:01:34.438Z,1.20
2023-03-27T10:04:23.003Z,1.15
2023-03-27T10:07:08.217Z,1.52
2023-03-27T10:10:15.096Z,1.30
2023-03-27T10:13:26.410Z,1.73
2023-03-27T10:16:06.201Z,1.60
2023-03-27T10:18:58.156Z,1.40
2023-03-27T10:21:35.733Z,1.50
2023-03-27T10:24:44.515Z,1.35
2023-03-27T10:27:49.344Z,1.30
2023-03-27T10:30:38.279Z,1.20
2023-03-27T10:33:38.556Z,1.10
2023-03-27T10:36:26.114Z,1.55
2023-03-27T10:39:11.624Z,1.20
2023-03-27T10:42:10.114Z,1.65
2023-03-27T10:44:46.897Z,1.55
2023-03-27T10:47:27.774Z,1.10
2023-03-27T10:50:45.899Z,1.05
2023-03-27T10:53:39.658Z,1.00
2023-03-27T10:56:26.587Z,0.88
2023-03-27T10:59:05.076Z,0.88
2023-03-27T11:01:56.041Z,1.15
2023-03-27T11:04:53.157Z,1.02
2023-03-27T11:07:38.016Z,0.93
2023-03-27T11:13:23.105Z,0.88
2023-03-27T11:16:19.873Z,1.30
2023-03-27T11:19:33.322Z,1.17
2023-03-27T11:22:46.083Z,1.15
2023-03-27T11:25:45.173Z,0.95
2023-03-27T11:28:31.974Z,1.10
2023-03-27T11:31:14.261Z,1.63
2023-03-27T11:34:06.003Z,0.90
2023-03-27T11:36:51.983Z,0.98
2023-03-27T11:39:54.016Z,1.00
2023-03-27T11:42:29.417Z,1.02
2023-03-27T11:48:02.270Z,1.20
2023-03-27T11:51:17.122Z,1.65
2023-03-27T11:54:16.228Z,0.93
2023-03-27T11:57:04.409Z,0.90
2023-03-27T12:00:14.403Z,0.98
2023-03-27T12:03:56.434Z,1.23
2023-03-27T12:07:36.416Z,1.33
2023-03-27T12:10:07.295Z,1.08
2023-03-27T12:13:58.270Z,1.42
2023-03-27T12:17:18.814Z,1.23
2023-03-27T12:20:20.881Z,1.40
2023-03-27T12:23:30.566Z,0.80
2023-03-27T12:26:50.752Z,0.90
2023-03-27T12:30:44.585Z,1.20
2023-03-27T12:33:30.321Z,1.10
2023-03-27T12:36:03.020Z,0.80
2023-03-27T12:38:36.943Z,1.15
2023-03-27T12:41:13.908Z,0.80
2023-03-27T12:44:01.334Z,1.20
2023-03-27T12:46:41.965Z,1.25
2023-03-27T12:49:13.651Z,0.77
2023-03-27T12:51:53.793Z,0.82
2023-03-27T12:55:09.540Z,0.80
2023-03-27T12:57:55.383Z,0.90
2023-03-27T13:01:00.318Z,1.05
2023-03-27T13:04:18.309Z,1.30
2023-03-27T13:07:47.120Z,0.90
2023-03-27T13:10:46.580Z,1.08
2023-03-27T13:13:41.568Z,1.10
2023-03-27T13:16:32.270Z,1.42
2023-03-27T13:19:34.098Z,0.82
2023-03-27T13:22:42.806Z,0.73
2023-03-27T13:25:47.159Z,0.70
2023-03-27T13:28:38.175Z,0.80
2023-03-27T13:31:46.320Z,1.60
2023-03-27T13:34:41.409Z,1.35
2023-03-27T13:37:16.502Z,0.70
2023-03-27T13:40:01.739Z,0.80
2023-03-27T13:42:44.053Z,1.10
2023-03-27T13:45:26.020Z,1.00
2023-03-27T13:48:53.828Z,1.17
2023-03-27T13:52:24.967Z,1.02
2023-03-27T13:55:10.665Z,1.45
2023-03-27T13:58:43.824Z,0.77
2023-03-27T14:01:26.505Z,0.88
2023-03-27T14:04:22.900Z,1.27
2023-03-27T14:07:04.361Z,1.30
2023-03-27T14:10:08.068Z,1.70
2023-03-27T14:13:23.134Z,1.77
2023-03-27T14:16:13.379Z,1.25
2023-03-27T14:18:46.727Z,0.70
2023-03-27T14:21:31.859Z,0.60
2023-03-27T14:24:20.334Z,0.75
2023-03-27T14:26:55.515Z,3.65
2023-03-27T14:29:25.365Z,1.02
2023-03-27T14:31:54.405Z,1.10
2023-03-27T14:34:33.210Z,0.77
2023-03-27T14:37:36.181Z,1.10
2023-03-27T14:40:27.831Z,0.75
2023-03-27T14:43:01.321Z,1.10
2023-03-27T14:45:36.005Z,0.90
2023-03-27T14:48:27.668Z,1.50
2023-03-27T14:50:58.056Z,2.20
2023-03-27T14:53:31.304Z,1.25
2023-03-27T14:56:24.360Z,1.45
2023-03-27T14:59:00.044Z,1.20
2023-03-27T15:01:36.111Z,1.35
2023-03-27T15:04:07.332Z,1.73
2023-03-27T15:06:36.616Z,1.48
2023-03-27T15:09:15.579Z,1.30
2023-03-27T15:12:05.312Z,1.63
2023-03-27T15:14:33.877Z,1.10
2023-03-27T15:17:08.391Z,0.90
2023-03-27T15:19:45.546Z,1.25
2023-03-27T15:22:26.371Z,1.80
2023-03-27T15:25:00.872Z,1.00
2023-03-27T15:27:38.345Z,0.98
2023-03-27T15:30:27.456Z,0.90
2023-03-27T15:33:02.006Z,1.20
2023-03-27T15:35:36.430Z,1.13
2023-03-27T15:38:13.091Z,1.00
2023-03-27T15:40:46.601Z,1.15
2023-03-27T15:43:14.296Z,0.93
2023-03-27T15:46:02.445Z,1.00
2023-03-27T15:48:32.182Z,0.73
2023-03-27T15:51:27.879Z,0.90
2023-03-27T15:53:56.183Z,0.85
2023-03-27T15:56:43.706Z,0.70
2023-03-27T15:59:15.340Z,0.90
2023-03-27T16:01:54.021Z,0.80
2023-03-27T16:04:21.531Z,1.23
2023-03-27T16:06:51.775Z,0.98
2023-03-27T16:09:52.952Z,1.38
2023-03-27T16:12:25.764Z,0.80
2023-03-27T16:14:57.353Z,0.90
2023-03-27T16:17:44.822Z,1.00
2023-03-27T16:20:13.242Z,1.20
2023-03-27T16:22:40.655Z,1.50
2023-03-27T16:25:10.489Z,1.40
2023-03-27T16:27:44.490Z,1.42
2023-03-27T16:30:25.355Z,1.30
2023-03-27T16:32:53.175Z,1.50
2023-03-27T16:35:20.627Z,1.92
2023-03-27T16:37:48.813Z,1.55
2023-03-27T16:40:16.361Z,1.70
2023-03-27T16:42:43.998Z,1.70
2023-03-27T16:45:11.611Z,1.38
2023-03-27T16:47:41.381Z,1.38
2023-03-27T16:50:15.118Z,1.67
2023-03-27T16:52:43.239Z,1.50
2023-03-27T16:55:13.963Z,1.30
2023-03-27T16:57:42.298Z,1.65
2023-03-27T17:00:11.734Z,2.53
2023-03-27T17:02:39.661Z,1.65
2023-03-27T17:05:09.150Z,1.92
2023-03-27T17:07:37.056Z,1.98
2023-03-27T17:10:05.352Z,1.90
2023-03-27T17:12:32.697Z,2.00
2023-03-27T17:15:00.493Z,2.33
2023-03-27T17:17:30.438Z,2.08
2023-03-27T17:19:58.031Z,2.30
2023-03-27T17:22:26.506Z,1.40
2023-03-27T17:24:57.375Z,0.93
2023-03-27T17:27:26.540Z,0.90
2023-03-27T17:29:56.110Z,0.70
2023-03-27T17:32:24.872Z,0.90
2023-03-27T17:34:52.620Z,0.80
2023-03-27T17:37:21.153Z,0.90
2023-03-27T17:39:49.129Z,0.95
2023-03-27T17:42:16.902Z,1.13
2023-03-27T17:44:45.205Z,1.20
2023-03-27T17:47:13.045Z,0.80
2023-03-27T17:49:41.255Z,1.02
2023-03-27T17:52:11.381Z,0.90
2023-03-27T17:54:39.208Z,0.70
2023-03-27T17:57:06.799Z,1.40
2023-03-27T17:59:36.387Z,1.20
2023-03-27T18:02:03.760Z,1.17
2023-03-27T18:04:31.331Z,1.05
2023-03-27T18:06:58.701Z,1.55
2023-03-27T18:09:26.096Z,2.15
2023-03-27T18:11:53.420Z,2.80
2023-03-27T18:14:20.836Z,2.83
2023-03-27T18:16:48.335Z,2.92
2023-03-27T18:19:15.826Z,3.10
2023-03-27T18:21:43.620Z,3.55
2023-03-27T18:24:11.359Z,4.38
2023-03-27T18:26:39.017Z,4.78
2023-03-27T18:29:06.854Z,4.63
2023-03-27T18:31:34.482Z,5.30
2023-03-27T18:34:02.221Z,4.75
2023-03-27T18:36:30.011Z,4.40
2023-03-27T18:38:58.399Z,5.38
2023-03-27T18:41:26.272Z,4.00
2023-03-27T18:43:53.801Z,4.47
2023-03-27T18:46:21.428Z,3.67
2023-03-27T18:48:49.996Z,3.53
2023-03-27T18:51:18.827Z,4.35
2023-03-27T18:53:46.361Z,4.28
2023-03-27T18:56:14.743Z,3.58
2023-03-27T18:58:42.464Z,3.58
2023-03-27T19:01:10.642Z,4.03
2023-03-27T19:03:39.699Z,3.47
2023-03-27T19:06:09.886Z,3.55
2023-03-27T19:08:38.568Z,3.47
2023-03-27T19:11:06.568Z,3.63
2023-03-27T19:14:12.599Z,3.53
2023-03-27T19:16:58.671Z,3.55
2023-03-27T19:19:55.348Z,4.07
2023-03-27T19:22:43.348Z,3.95
2023-03-27T19:25:37.074Z,3.35
2023-03-27T19:28:06.313Z,2.67
2023-03-27T19:30:34.258Z,3.20
2023-03-27T19:33:02.430Z,3.28
2023-03-27T19:35:30.145Z,3.70
2023-03-27T19:37:57.727Z,3.53
2023-03-27T19:40:25.602Z,2.83
2023-03-27T19:42:53.238Z,3.13
2023-03-27T19:45:21.248Z,3.30
2023-03-27T19:47:48.921Z,2.90
2023-03-27T19:50:21.905Z,3.45
2023-03-27T19:53:08.233Z,3.33
2023-03-27T19:55:37.582Z,3.10
2023-03-27T19:58:05.075Z,3.60
2023-03-27T20:00:38.379Z,3.40
2023-03-27T20:03:10.317Z,4.20
2023-03-27T20:05:44.993Z,4.10
2023-03-27T20:08:12.485Z,4.30
2023-03-27T20:10:39.814Z,3.80
2023-03-27T20:13:07.314Z,3.60
2023-03-27T20:15:35.234Z,3.53
2023-03-27T20:18:04.589Z,3.83
2023-03-27T20:20:32.763Z,4.00
2023-03-27T20:23:02.695Z,3.78
2023-03-27T20:25:33.632Z,3.60
2023-03-27T20:28:02.674Z,3.35
2023-03-27T20:30:30.786Z,4.18
2023-03-27T20:33:04.971Z,3.85
2023-03-27T20:35:33.552Z,4.18
2023-03-27T20:38:05.505Z,3.55
2023-03-27T20:40:52.825Z,3.22
2023-03-27T20:43:27.085Z,3.15
2023-03-27T20:45:58.674Z,2.85
2023-03-27T20:48:32.468Z,2.97
2023-03-27T20:51:03.018Z,3.20
2023-03-27T20:53:33.177Z,2.67
2023-03-27T20:56:05.890Z,2.45
2023-03-27T20:58:35.380Z,2.47
2023-03-27T21:01:05.288Z,2.42
2023-03-27T21:03:34.903Z,2.38
2023-03-27T21:06:10.524Z,2.55
2023-03-27T21:08:38.425Z,2.60
2023-03-27T21:11:06.058Z,2.15
2023-03-27T21:13:33.468Z,1.77
2023-03-27T21:16:01.746Z,2.15
2023-03-27T21:18:29.715Z,2.10
2023-03-27T21:20:57.253Z,1.80
2023-03-27T21:23:24.979Z,2.22
2023-03-27T21:25:53.310Z,1.98
2023-03-27T21:28:21.022Z,1.90
2023-03-27T21:30:48.492Z,1.77
2023-03-27T21:33:16.451Z,1.73
2023-03-27T21:35:47.343Z,1.60
2023-03-27T21:38:16.074Z,1.98
2023-03-27T21:40:44.854Z,2.33
2023-03-27T21:43:13.048Z,2.40
2023-03-27T21:45:40.742Z,2.38
2023-03-27T21:48:10.349Z,2.58
2023-03-27T21:50:38.155Z,2.67
2023-03-27T21:53:05.820Z,2.63
2023-03-27T21:55:34.463Z,2.65
2023-03-27T21:58:02.232Z,3.22
2023-03-27T22:00:29.684Z,3.30
2023-03-27T22:02:57.206Z,4.55
2023-03-27T22:05:24.630Z,2.88
2023-03-27T22:07:52.376Z,3.15
2023-03-27T22:10:19.938Z,2.47
2023-03-27T22:12:47.254Z,2.65
2023-03-27T22:15:14.694Z,2.30
2023-03-27T22:17:42.204Z,2.60
2023-03-27T22:20:10.074Z,2.30
2023-03-27T22:22:38.162Z,2.67
2023-03-27T22:25:06.143Z,1.85
2023-03-27T22:27:33.622Z,1.92
2023-03-27T22:30:01.133Z,1.75
2023-03-27T22:32:28.543Z,1.67
2023-03-27T22:34:56.180Z,2.35
2023-03-27T22:37:25.110Z,2.00
2023-03-27T22:39:52.592Z,2.38
2023-03-27T22:42:20.296Z,1.80
2023-03-27T22:44:47.655Z,1.48
2023-03-27T22:47:15.085Z,1.30
2023-03-27T22:49:44.856Z,1.30
2023-03-27T22:52:12.278Z,1.50
2023-03-27T22:54:39.588Z,1.50
2023-03-27T22:57:07.017Z,1.33
2023-03-27T22:59:34.926Z,1.30
2023-03-27T23:02:02.359Z,1.50
2023-03-27T23:04:30.151Z,1.38
2023-03-27T23:07:01.726Z,1.30
2023-03-27T23:09:29.115Z,1.80
2023-03-27T23:11:56.478Z,1.70
2023-03-27T23:14:24.056Z,1.25
2023-03-27T23:16:51.438Z,1.40
2023-03-27T23:19:18.899Z,1.20
2023-03-27T23:21:46.236Z,1.60
2023-03-27T23:24:13.643Z,1.70
2023-03-27T23:26:41.247Z,1.40
2023-03-27T23:29:08.575Z,1.40
2023-03-27T23:31:36.099Z,1.20
2023-03-27T23:34:03.446Z,1.27
2023-03-27T23:36:30.953Z,1.55
2023-03-27T23:38:58.207Z,0.90
2023-03-27T23:41:25.550Z,1.30
2023-03-27T23:43:53.915Z,1.20
2023-03-27T23:46:21.280Z,1.50
2023-03-27T23:48:48.633Z,1.48
2023-03-27T23:51:16.585Z,1.38
2023-03-27T23:53:44.547Z,2.10
2023-03-27T23:56:12.035Z,1.08
2023-03-27T23:58:39.703Z,1.75
